createdAt,value
2018-10-06T00:00:05.166Z,93.65
2018-10-06T00:01:05.144Z,92.89
2018-10-06T00:02:05.130Z,92.69
2018-10-06T00:03:05.113Z,92.69
2018-10-06T00:04:05.088Z,92.79
2018-10-06T00:05:05.069Z,92.89
2018-10-06T00:06:05.057Z,92.98
2018-10-06T00:07:05.034Z,93.74
2018-10-06T00:08:05.012Z,93.65
2018-10-06T00:09:04.995Z,93.74
2018-10-06T00:10:04.970Z,94.03
2018-10-06T00:11:04.951Z,93.55
2018-10-06T00:12:04.932Z,93.17
2018-10-06T00:13:04.908Z,92.89
2018-10-06T00:14:04.890Z,92.98
2018-10-06T00:15:04.870Z,92.89
2018-10-06T00:16:04.849Z,93.08
2018-10-06T00:17:04.831Z,92.69
2018-10-06T00:18:04.809Z,92.41
2018-10-06T00:19:04.796Z,92.32
2018-10-06T00:20:04.774Z,93.27
2018-10-06T00:21:04.754Z,93.60
2018-10-06T00:22:04.733Z,93.51
2018-10-06T00:23:04.711Z,93.51
2018-10-06T00:24:04.691Z,93.98
2018-10-06T00:25:04.673Z,93.98
2018-10-06T00:26:04.656Z,93.79
2018-10-06T00:27:04.634Z,93.79
2018-10-06T00:28:04.617Z,93.79
2018-10-06T00:29:04.601Z,94.08
2018-10-06T00:30:04.573Z,93.89
2018-10-06T00:31:04.565Z,94.46
2018-10-06T00:32:04.536Z,94.37
2018-10-06T00:33:04.513Z,94.37
2018-10-06T00:34:04.495Z,94.17
2018-10-06T00:35:04.482Z,94.93
2018-10-06T00:36:04.457Z,94.17
2018-10-06T00:37:04.435Z,94.37
2018-10-06T00:38:04.416Z,94.46
2018-10-06T00:39:04.399Z,94.74
2018-10-06T00:40:04.375Z,94.93
2018-10-06T00:41:04.361Z,94.46
2018-10-06T00:42:04.337Z,94.84
2018-10-06T00:43:04.319Z,94.93
2018-10-06T00:44:04.298Z,94.27
2018-10-06T00:45:04.278Z,94.17
2018-10-06T00:46:04.258Z,94.51
2018-10-06T00:47:04.241Z,94.08
2018-10-06T00:48:04.220Z,94.56
2018-10-06T00:49:04.199Z,94.42
2018-10-06T00:50:04.182Z,94.79
2018-10-06T00:51:04.158Z,96.51
2018-10-06T00:52:04.138Z,97.17
2018-10-06T00:53:04.126Z,96.79
2018-10-06T00:54:04.101Z,96.22
2018-10-06T00:55:04.078Z,97.74
2018-10-06T00:56:04.056Z,98.22
2018-10-06T00:57:04.040Z,97.08
2018-10-06T00:58:04.019Z,96.60
2018-10-06T00:59:04.000Z,97.27
2018-10-06T01:00:03.983Z,97.17
2018-10-06T01:01:03.960Z,98.55
2018-10-06T01:02:03.940Z,98.32
2018-10-06T01:03:03.920Z,97.93
2018-10-06T01:04:03.904Z,97.22
2018-10-06T01:05:03.878Z,97.22
2018-10-06T01:06:03.860Z,97.41
2018-10-06T01:07:03.844Z,96.75
2018-10-06T01:08:03.820Z,96.55
2018-10-06T01:09:03.798Z,97.51
2018-10-06T01:10:03.778Z,97.13
2018-10-06T01:11:03.760Z,96.55
2018-10-06T01:12:03.742Z,96.46
2018-10-06T01:13:03.720Z,96.36
2018-10-06T01:14:03.700Z,96.36
2018-10-06T01:15:03.682Z,96.51
2018-10-06T01:16:03.663Z,96.70
2018-10-06T01:17:03.638Z,96.98
2018-10-06T01:18:03.620Z,97.08
2018-10-06T01:19:03.605Z,97.08
2018-10-06T01:20:03.584Z,98.22
2018-10-06T01:21:03.560Z,98.50
2018-10-06T01:22:03.542Z,98.41
2018-10-06T01:23:03.524Z,99.17
2018-10-06T01:24:03.503Z,98.88
2018-10-06T01:25:03.482Z,98.98
2018-10-06T01:26:03.464Z,99.17
2018-10-06T01:27:03.441Z,99.55
2018-10-06T01:28:03.424Z,99.65
2018-10-06T01:29:03.401Z,99.55
2018-10-06T01:30:03.380Z,99.46
2018-10-06T01:31:03.354Z,99.65
2018-10-06T01:32:03.344Z,99.03
2018-10-06T01:33:03.322Z,99.08
2018-10-06T01:34:03.300Z,99.27
2018-10-06T01:35:03.277Z,99.08
2018-10-06T01:36:03.262Z,99.27
2018-10-06T01:37:03.242Z,99.27
2018-10-06T01:38:03.219Z,98.41
2018-10-06T01:39:03.200Z,98.65
2018-10-06T01:40:03.184Z,98.74
2018-10-06T01:41:03.154Z,98.46
2018-10-06T01:42:03.136Z,98.50
2018-10-06T01:43:03.114Z,98.69
2018-10-06T01:44:03.096Z,99.27
2018-10-06T01:45:03.077Z,98.98
2018-10-06T01:46:03.059Z,99.36
2018-10-06T01:47:03.042Z,99.93
2018-10-06T01:48:03.016Z,99.55
2018-10-06T01:49:02.998Z,99.65
2018-10-06T01:50:03.030Z,99.99
2018-10-06T01:51:02.991Z,99.36
2018-10-06T01:52:02.936Z,99.36
2018-10-06T01:53:02.912Z,99.65
2018-10-06T01:54:02.895Z,98.98
2018-10-06T01:55:02.874Z,98.98
2018-10-06T01:56:02.855Z,99.17
2018-10-06T01:57:02.836Z,99.99
2018-10-06T01:58:02.814Z,99.65
2018-10-06T01:59:02.795Z,99.74
2018-10-06T02:00:02.780Z,99.74
2018-10-06T02:01:02.752Z,99.99
2018-10-06T02:02:02.735Z,99.55
2018-10-06T02:03:02.710Z,99.74
2018-10-06T02:04:02.694Z,99.65
2018-10-06T02:05:02.676Z,99.99
2018-10-06T02:06:02.650Z,99.55
2018-10-06T02:07:02.637Z,99.99
2018-10-06T02:08:02.611Z,99.93
2018-10-06T02:09:02.592Z,99.99
2018-10-06T02:10:02.568Z,99.99
2018-10-06T02:11:02.549Z,99.99
2018-10-06T02:12:02.540Z,99.99
2018-10-06T02:13:02.511Z,99.99
2018-10-06T02:14:02.490Z,99.99
2018-10-06T02:15:02.471Z,99.99
2018-10-06T02:16:02.450Z,99.99
2018-10-06T02:17:02.427Z,99.99
2018-10-06T02:18:02.413Z,99.99
2018-10-06T02:19:02.392Z,99.99
2018-10-06T02:20:02.367Z,99.99
2018-10-06T02:21:02.347Z,99.99
2018-10-06T02:22:02.327Z,99.99
2018-10-06T02:23:02.308Z,99.99
2018-10-06T02:24:02.289Z,99.99
2018-10-06T02:25:02.269Z,99.99
2018-10-06T02:26:02.245Z,99.99
2018-10-06T02:27:02.228Z,99.99
2018-10-06T02:28:02.210Z,99.99
2018-10-06T02:29:02.185Z,99.99
2018-10-06T02:30:02.226Z,99.99
2018-10-06T02:31:02.144Z,99.99
2018-10-06T02:32:02.128Z,99.99
2018-10-06T02:33:02.101Z,99.99
2018-10-06T02:34:02.082Z,99.99
2018-10-06T02:35:02.062Z,99.99
2018-10-06T02:36:02.048Z,99.99
2018-10-06T02:37:02.028Z,99.99
2018-10-06T02:38:02.007Z,99.99
2018-10-06T02:39:01.984Z,99.99
2018-10-06T02:40:01.971Z,99.99
2018-10-06T02:41:01.942Z,99.99
2018-10-06T02:42:01.921Z,99.99
2018-10-06T02:43:01.902Z,99.99
2018-10-06T02:44:01.880Z,99.99
2018-10-06T02:45:01.858Z,99.99
2018-10-06T02:46:01.842Z,99.99
2018-10-06T02:47:01.821Z,99.99
2018-10-06T02:48:01.801Z,99.99
2018-10-06T02:49:01.778Z,99.99
2018-10-06T02:50:01.808Z,99.99
2018-10-06T02:51:01.737Z,99.99
2018-10-06T02:52:01.718Z,99.99
2018-10-06T02:53:01.694Z,99.99
2018-10-06T02:54:01.676Z,99.99
2018-10-06T02:55:01.659Z,99.99
2018-10-06T02:56:01.640Z,99.99
2018-10-06T02:57:01.616Z,99.99
2018-10-06T02:58:01.594Z,99.99
2018-10-06T02:59:01.572Z,99.99
2018-10-06T03:00:01.556Z,99.99
2018-10-06T03:01:01.531Z,99.99
2018-10-06T03:02:01.513Z,99.99
2018-10-06T03:03:01.490Z,99.99
2018-10-06T03:04:01.473Z,99.99
2018-10-06T03:05:01.448Z,99.99
2018-10-06T03:06:01.427Z,99.99
2018-10-06T03:07:01.407Z,99.99
2018-10-06T03:08:01.388Z,99.99
2018-10-06T03:09:01.381Z,99.99
2018-10-06T03:10:01.345Z,99.99
2018-10-06T03:11:01.324Z,99.99
2018-10-06T03:12:01.309Z,99.99
2018-10-06T03:13:01.287Z,99.99
2018-10-06T03:14:01.263Z,99.99
2018-10-06T03:15:01.249Z,99.99
2018-10-06T03:16:01.227Z,99.99
2018-10-06T03:17:01.207Z,99.99
2018-10-06T03:18:01.184Z,99.99
2018-10-06T03:19:01.164Z,99.99
2018-10-06T03:20:01.141Z,99.99
2018-10-06T03:21:01.120Z,99.99
2018-10-06T03:22:01.101Z,99.99
2018-10-06T03:23:01.077Z,99.99
2018-10-06T03:24:01.063Z,99.99
2018-10-06T03:25:01.037Z,99.99
2018-10-06T03:26:01.017Z,99.99
2018-10-06T03:27:00.996Z,99.99
2018-10-06T03:28:00.975Z,99.99
2018-10-06T03:29:00.956Z,99.99
2018-10-06T03:30:00.935Z,99.99
2018-10-06T03:31:00.916Z,99.99
2018-10-06T03:32:00.898Z,99.99
2018-10-06T03:33:00.878Z,99.99
2018-10-06T03:34:00.856Z,99.99
2018-10-06T03:35:00.833Z,99.99
2018-10-06T03:36:00.813Z,99.99
2018-10-06T03:37:00.788Z,99.99
2018-10-06T03:38:00.775Z,99.99
2018-10-06T03:39:00.747Z,99.99
2018-10-06T03:40:00.729Z,99.99
2018-10-06T03:41:00.707Z,99.99
2018-10-06T03:42:00.687Z,99.99
2018-10-06T03:43:00.668Z,99.99
2018-10-06T03:44:00.646Z,99.99
2018-10-06T03:45:00.657Z,99.99
2018-10-06T03:46:00.605Z,99.99
2018-10-06T03:47:00.585Z,99.99
2018-10-06T03:48:00.562Z,99.99
2018-10-06T03:49:00.545Z,99.99
2018-10-06T03:50:00.525Z,99.99
2018-10-06T03:51:00.507Z,99.99
2018-10-06T03:52:00.479Z,99.99
2018-10-06T03:53:00.463Z,99.99
2018-10-06T03:54:00.516Z,99.99
2018-10-06T03:55:00.424Z,99.99
2018-10-06T03:56:00.403Z,99.99
2018-10-06T03:57:00.378Z,99.99
2018-10-06T03:58:00.359Z,99.99
2018-10-06T03:59:00.346Z,99.99
2018-10-06T04:00:00.321Z,99.99
2018-10-06T04:01:00.303Z,99.99
2018-10-06T04:02:00.275Z,99.99
2018-10-06T04:03:00.259Z,99.99
2018-10-06T04:04:00.236Z,99.99
2018-10-06T04:05:00.214Z,99.99
2018-10-06T04:06:00.199Z,99.99
2018-10-06T04:07:00.171Z,99.99
2018-10-06T04:08:00.153Z,99.99
2018-10-06T04:09:00.138Z,99.99
2018-10-06T04:10:00.119Z,99.99
2018-10-06T04:11:00.091Z,99.99
2018-10-06T04:12:00.076Z,99.99
2018-10-06T04:13:00.052Z,99.99
2018-10-06T04:14:00.032Z,99.99
2018-10-06T04:15:00.013Z,99.99
2018-10-06T04:15:59.990Z,99.99
2018-10-06T04:16:59.970Z,99.99
2018-10-06T04:17:59.949Z,99.99
2018-10-06T04:18:59.929Z,99.99
2018-10-06T04:19:59.908Z,99.99
2018-10-06T04:20:59.892Z,99.99
2018-10-06T04:21:59.867Z,99.99
2018-10-06T04:22:59.845Z,99.99
2018-10-06T04:23:59.828Z,99.99
2018-10-06T04:24:59.806Z,99.99
2018-10-06T04:25:59.786Z,99.99
2018-10-06T04:26:59.760Z,99.99
2018-10-06T04:27:59.742Z,99.99
2018-10-06T04:28:59.724Z,99.99
2018-10-06T04:29:59.706Z,99.99
2018-10-06T04:30:59.682Z,99.99
2018-10-06T04:31:59.661Z,99.99
2018-10-06T04:32:59.640Z,99.99
2018-10-06T04:33:59.624Z,99.99
2018-10-06T04:34:59.602Z,99.99
2018-10-06T04:35:59.580Z,99.99
2018-10-06T04:36:59.557Z,99.99
2018-10-06T04:37:59.538Z,99.99
2018-10-06T04:38:59.518Z,99.99
2018-10-06T04:39:59.496Z,99.99
2018-10-06T04:40:59.477Z,99.99
2018-10-06T04:41:59.456Z,99.99
2018-10-06T04:42:59.436Z,99.99
2018-10-06T04:43:59.422Z,99.99
2018-10-06T04:44:59.390Z,99.99
2018-10-06T04:45:59.371Z,99.99
2018-10-06T04:46:59.354Z,99.99
2018-10-06T04:47:59.333Z,99.99
2018-10-06T04:48:59.310Z,99.99
2018-10-06T04:49:59.291Z,99.99
2018-10-06T04:50:59.269Z,99.99
2018-10-06T04:51:59.251Z,99.99
2018-10-06T04:52:59.263Z,99.99
2018-10-06T04:53:59.207Z,99.99
2018-10-06T04:54:59.192Z,99.99
2018-10-06T04:55:59.168Z,99.99
2018-10-06T04:56:59.150Z,99.99
2018-10-06T04:57:59.126Z,99.99
2018-10-06T04:58:59.106Z,99.99
2018-10-06T04:59:59.083Z,99.99
2018-10-06T05:00:59.066Z,99.99
2018-10-06T05:01:59.045Z,99.99
2018-10-06T05:02:59.023Z,99.99
2018-10-06T05:03:59.002Z,99.99
2018-10-06T05:04:58.979Z,99.99
2018-10-06T05:05:58.957Z,99.99
2018-10-06T05:06:58.938Z,99.99
2018-10-06T05:07:58.923Z,99.99
2018-10-06T05:08:58.906Z,99.99
2018-10-06T05:09:58.880Z,99.99
2018-10-06T05:10:58.857Z,99.99
2018-10-06T05:11:58.838Z,99.99
2018-10-06T05:12:58.818Z,99.99
2018-10-06T05:13:58.796Z,99.99
2018-10-06T05:14:58.774Z,99.99
2018-10-06T05:15:58.756Z,99.99
2018-10-06T05:16:58.732Z,99.99
2018-10-06T05:17:58.711Z,99.99
2018-10-06T05:18:58.696Z,99.99
2018-10-06T05:19:58.674Z,99.99
2018-10-06T05:20:58.654Z,99.99
2018-10-06T05:21:58.629Z,99.99
2018-10-06T05:22:58.611Z,99.99
2018-10-06T05:23:58.588Z,99.99
2018-10-06T05:24:58.565Z,99.99
2018-10-06T05:25:58.544Z,99.99
2018-10-06T05:26:58.530Z,99.99
2018-10-06T05:27:58.510Z,99.99
2018-10-06T05:28:58.491Z,99.99
2018-10-06T05:29:58.477Z,99.99
2018-10-06T05:30:58.443Z,99.99
2018-10-06T05:31:58.421Z,99.99
2018-10-06T05:32:58.402Z,99.99
2018-10-06T05:33:58.462Z,99.99
2018-10-06T05:34:58.361Z,99.99
2018-10-06T05:35:58.344Z,99.99
2018-10-06T05:36:58.327Z,99.99
2018-10-06T05:37:58.296Z,99.99
2018-10-06T05:38:58.278Z,99.99
2018-10-06T05:39:58.257Z,99.99
2018-10-06T05:40:58.246Z,99.99
2018-10-06T05:41:58.213Z,99.99
2018-10-06T05:42:58.197Z,99.99
2018-10-06T05:43:58.180Z,99.99
2018-10-06T05:44:58.155Z,99.99
2018-10-06T05:45:58.129Z,99.99
2018-10-06T05:46:58.113Z,99.99
2018-10-06T05:47:58.091Z,99.99
2018-10-06T05:48:58.070Z,99.99
2018-10-06T05:49:58.050Z,99.99
2018-10-06T05:50:58.037Z,99.99
2018-10-06T05:51:58.014Z,99.99
2018-10-06T05:52:57.997Z,99.99
2018-10-06T05:53:57.965Z,99.99
2018-10-06T05:54:57.992Z,99.99
2018-10-06T05:55:57.925Z,99.99
2018-10-06T05:56:57.900Z,99.99
2018-10-06T05:57:57.882Z,99.99
2018-10-06T05:58:57.871Z,99.99
2018-10-06T05:59:57.849Z,99.99
2018-10-06T06:00:57.823Z,99.99
2018-10-06T06:01:57.798Z,99.99
2018-10-06T06:02:57.783Z,99.99
2018-10-06T06:03:57.761Z,99.99
2018-10-06T06:04:57.738Z,99.99
2018-10-06T06:05:57.720Z,99.99
2018-10-06T06:06:57.701Z,99.99
2018-10-06T06:07:57.676Z,99.99
2018-10-06T06:08:57.654Z,99.99
2018-10-06T06:09:57.658Z,99.99
2018-10-06T06:10:57.616Z,99.99
2018-10-06T06:11:57.592Z,99.99
2018-10-06T06:12:57.590Z,99.99
2018-10-06T06:13:57.549Z,99.99
2018-10-06T06:14:57.532Z,99.99
2018-10-06T06:15:57.510Z,99.99
2018-10-06T06:17:47.648Z,99.99
2018-10-06T06:18:45.006Z,99.99
2018-10-06T06:19:44.978Z,99.99
2018-10-06T06:20:44.961Z,99.99
2018-10-06T06:21:44.938Z,99.99
2018-10-06T06:22:44.958Z,99.99
2018-10-06T06:23:44.918Z,99.99
2018-10-06T06:24:44.885Z,99.99
2018-10-06T06:25:44.858Z,99.99
2018-10-06T06:26:44.838Z,99.99
2018-10-06T06:27:44.814Z,99.99
2018-10-06T06:28:44.798Z,99.99
2018-10-06T06:29:44.774Z,99.99
2018-10-06T06:30:44.807Z,99.99
2018-10-06T06:31:44.731Z,99.99
2018-10-06T06:32:44.712Z,99.99
2018-10-06T06:33:44.696Z,99.99
2018-10-06T06:34:44.682Z,99.99
2018-10-06T06:35:44.652Z,99.99
2018-10-06T06:36:44.635Z,99.99
2018-10-06T06:37:44.613Z,99.99
2018-10-06T06:38:44.594Z,99.99
2018-10-06T06:39:44.591Z,99.99
2018-10-06T06:40:44.554Z,99.99
2018-10-06T06:41:44.537Z,99.99
2018-10-06T06:42:44.516Z,99.99
2018-10-06T06:43:44.633Z,99.99
2018-10-06T06:44:44.478Z,99.99
2018-10-06T06:45:44.451Z,99.80
2018-10-06T06:46:44.447Z,99.99
2018-10-06T06:47:44.413Z,99.13
2018-10-06T06:48:44.391Z,98.08
2018-10-06T06:49:44.374Z,98.18
2018-10-06T06:50:44.359Z,97.32
2018-10-06T06:51:44.334Z,96.84
2018-10-06T06:52:44.309Z,96.56
2018-10-06T06:53:44.287Z,95.94
2018-10-06T06:54:44.269Z,96.03
2018-10-06T06:55:44.252Z,95.46
2018-10-06T06:56:44.230Z,94.70
2018-10-06T06:57:44.209Z,94.89
2018-10-06T06:58:44.200Z,94.41
2018-10-06T06:59:44.174Z,94.32
2018-10-06T07:00:44.157Z,93.55
2018-10-06T07:01:44.133Z,92.98
2018-10-06T07:02:44.135Z,93.02
2018-10-06T07:03:44.097Z,93.02
2018-10-06T07:04:44.073Z,92.36
2018-10-06T07:05:44.082Z,91.50
2018-10-06T07:06:44.043Z,90.93
2018-10-06T07:07:44.020Z,90.93
2018-10-06T07:08:44.010Z,90.45
2018-10-06T07:09:43.977Z,90.11
2018-10-06T07:10:43.956Z,90.40
2018-10-06T07:11:43.940Z,90.02
2018-10-06T07:12:43.984Z,89.64
2018-10-06T07:13:43.903Z,88.20
2018-10-06T07:14:43.880Z,88.01
2018-10-06T07:15:43.862Z,87.82
2018-10-06T07:16:43.844Z,86.82
2018-10-06T07:17:43.824Z,86.15
2018-10-06T07:18:43.806Z,85.86
2018-10-06T07:19:43.788Z,85.67
2018-10-06T07:20:43.764Z,84.76
2018-10-06T07:21:43.744Z,84.47
2018-10-06T07:22:43.725Z,83.80
2018-10-06T07:23:43.709Z,83.23
2018-10-06T07:24:43.691Z,82.84
2018-10-06T07:25:43.676Z,83.33
2018-10-06T07:26:43.656Z,82.56
2018-10-06T07:27:43.637Z,81.99
2018-10-06T07:28:43.617Z,81.93
2018-10-06T07:29:43.597Z,81.45
2018-10-06T07:30:43.575Z,81.26
2018-10-06T07:31:43.564Z,80.11
2018-10-06T07:32:43.540Z,80.21
2018-10-06T07:33:43.523Z,80.21
2018-10-06T07:34:43.506Z,80.02
2018-10-06T07:35:43.486Z,79.54
2018-10-06T07:36:43.470Z,79.68
2018-10-06T07:37:43.449Z,79.49
2018-10-06T07:38:43.432Z,79.39
2018-10-06T07:39:43.415Z,79.58
2018-10-06T07:40:43.395Z,79.58
2018-10-06T07:41:43.379Z,79.49
2018-10-06T07:42:43.364Z,78.63
2018-10-06T07:43:43.340Z,78.91
2018-10-06T07:44:43.371Z,78.53
2018-10-06T07:45:43.305Z,78.43
2018-10-06T07:46:43.293Z,78.09
2018-10-06T07:47:43.270Z,77.42
2018-10-06T07:48:43.255Z,77.61
2018-10-06T07:49:43.239Z,77.61
2018-10-06T07:50:43.216Z,77.51
2018-10-06T07:51:43.200Z,78.09
2018-10-06T07:52:43.183Z,78.19
2018-10-06T07:53:43.166Z,76.75
2018-10-06T07:54:43.153Z,75.60
2018-10-06T07:55:43.132Z,75.60
2018-10-06T07:56:43.132Z,75.51
2018-10-06T07:57:43.092Z,75.64
2018-10-06T07:58:43.078Z,75.26
2018-10-06T07:59:43.066Z,74.77
2018-10-06T08:00:43.042Z,75.07
2018-10-06T08:01:43.026Z,74.40
2018-10-06T08:02:43.011Z,74.49
2018-10-06T08:03:42.998Z,74.40
2018-10-06T08:04:42.971Z,73.72
2018-10-06T08:05:42.956Z,73.82
2018-10-06T08:06:42.942Z,73.63
2018-10-06T08:07:42.928Z,73.44
2018-10-06T08:08:42.903Z,73.44
2018-10-06T08:09:42.886Z,73.05
2018-10-06T08:10:42.870Z,73.47
2018-10-06T08:11:42.856Z,73.19
2018-10-06T08:12:42.832Z,73.09
2018-10-06T08:13:42.824Z,72.13
2018-10-06T08:14:42.803Z,72.32
2018-10-06T08:15:42.789Z,71.46
2018-10-06T08:16:42.766Z,70.60
2018-10-06T08:17:42.751Z,70.50
2018-10-06T08:18:42.736Z,70.54
2018-10-06T08:19:42.718Z,70.44
2018-10-06T08:20:42.701Z,70.54
2018-10-06T08:21:42.687Z,70.15
2018-10-06T08:22:42.672Z,70.35
2018-10-06T08:23:42.652Z,69.87
2018-10-06T08:24:42.641Z,69.62
2018-10-06T08:25:42.620Z,70.86
2018-10-06T08:26:42.755Z,70.67
2018-10-06T08:27:42.587Z,69.84
2018-10-06T08:28:42.571Z,68.30
2018-10-06T08:29:42.555Z,68.21
2018-10-06T08:30:42.540Z,68.02
2018-10-06T08:31:42.523Z,68.02
2018-10-06T08:32:42.509Z,67.16
2018-10-06T08:33:42.493Z,67.06
2018-10-06T08:34:42.477Z,66.03
2018-10-06T08:35:42.461Z,66.03
2018-10-06T08:36:42.443Z,65.75
2018-10-06T08:37:42.426Z,65.75
2018-10-06T08:38:42.410Z,66.90
2018-10-06T08:39:42.395Z,65.84
2018-10-06T08:40:42.377Z,66.23
2018-10-06T08:41:42.365Z,65.49
2018-10-06T08:42:42.444Z,64.92
2018-10-06T08:43:42.332Z,64.72
2018-10-06T08:44:42.323Z,64.43
2018-10-06T08:45:42.305Z,65.14
2018-10-06T08:46:42.285Z,64.28
2018-10-06T08:47:42.274Z,63.32
2018-10-06T08:48:42.262Z,62.84
2018-10-06T08:49:42.291Z,62.77
2018-10-06T08:50:42.225Z,62.55
2018-10-06T08:51:42.211Z,63.02
2018-10-06T08:52:42.194Z,62.74
2018-10-06T08:53:42.180Z,62.68
2018-10-06T08:54:42.167Z,62.77
2018-10-06T08:55:42.149Z,62.29
2018-10-06T08:56:42.135Z,61.46
2018-10-06T08:57:42.122Z,62.61
2018-10-06T08:58:42.104Z,61.68
2018-10-06T08:59:42.092Z,60.14
2018-10-06T09:00:42.073Z,60.24
2018-10-06T09:01:42.063Z,59.85
2018-10-06T09:02:42.046Z,59.01
2018-10-06T09:03:42.033Z,58.63
2018-10-06T09:04:42.022Z,58.63
2018-10-06T09:05:42.003Z,58.89
2018-10-06T09:06:41.994Z,58.63
2018-10-06T09:07:41.971Z,58.72
2018-10-06T09:08:41.969Z,58.65
2018-10-06T09:09:41.948Z,57.89
2018-10-06T09:10:41.954Z,57.79
2018-10-06T09:11:41.922Z,56.85
2018-10-06T09:12:41.902Z,56.47
2018-10-06T09:13:41.893Z,56.18
2018-10-06T09:14:41.881Z,55.99
2018-10-06T09:15:41.873Z,55.73
2018-10-06T09:16:41.851Z,54.47
2018-10-06T09:17:41.852Z,55.82
2018-10-06T09:18:41.825Z,55.73
2018-10-06T09:19:41.816Z,54.98
2018-10-06T09:20:41.799Z,54.60
2018-10-06T09:21:41.782Z,53.92
2018-10-06T09:22:41.773Z,53.95
2018-10-06T09:23:41.755Z,53.66
2018-10-06T09:24:41.746Z,52.98
2018-10-06T09:25:41.729Z,52.98
2018-10-06T09:26:41.725Z,52.59
2018-10-06T09:27:41.708Z,52.57
2018-10-06T09:28:41.693Z,53.25
2018-10-06T09:29:41.683Z,52.86
2018-10-06T09:30:41.670Z,52.76
2018-10-06T09:31:41.653Z,53.73
2018-10-06T09:32:41.646Z,54.05
2018-10-06T09:33:41.636Z,53.85
2018-10-06T09:34:41.622Z,53.56
2018-10-06T09:35:41.607Z,51.85
2018-10-06T09:36:41.602Z,51.85
2018-10-06T09:37:41.585Z,51.75
2018-10-06T09:38:41.572Z,51.65
2018-10-06T09:39:41.560Z,51.59
2018-10-06T09:40:41.542Z,51.10
2018-10-06T09:41:41.537Z,51.59
2018-10-06T09:42:41.649Z,51.51
2018-10-06T09:43:41.511Z,49.65
2018-10-06T09:44:41.500Z,49.65
2018-10-06T09:45:41.489Z,49.58
2018-10-06T09:46:41.482Z,50.16
2018-10-06T09:47:41.468Z,49.39
2018-10-06T09:48:41.457Z,49.58
2018-10-06T09:49:41.446Z,48.74
2018-10-06T09:50:41.438Z,49.60
2018-10-06T09:51:41.433Z,49.70
2018-10-06T09:52:41.416Z,50.70
2018-10-06T09:53:41.441Z,49.05
2018-10-06T09:54:41.395Z,48.27
2018-10-06T09:55:41.430Z,48.66
2018-10-06T09:56:41.371Z,48.27
2018-10-06T09:57:41.360Z,47.81
2018-10-06T09:58:41.358Z,47.11
2018-10-06T09:59:41.344Z,48.69
2018-10-06T10:00:41.333Z,47.91
2018-10-06T10:01:41.317Z,47.14
2018-10-06T10:02:41.327Z,46.67
2018-10-06T10:03:41.304Z,46.87
2018-10-06T10:04:41.291Z,47.26
2018-10-06T10:05:41.334Z,46.70
2018-10-06T10:06:41.273Z,44.86
2018-10-06T10:07:41.264Z,45.22
2018-10-06T10:08:41.257Z,45.34
2018-10-06T10:09:41.273Z,45.32
2018-10-06T10:10:41.239Z,45.32
2018-10-06T10:11:41.231Z,46.19
2018-10-06T10:12:41.306Z,46.87
2018-10-06T10:13:41.220Z,45.92
2018-10-06T10:14:41.199Z,45.42
2018-10-06T10:15:41.191Z,45.32
2018-10-06T10:16:41.185Z,46.80
2018-10-06T10:17:41.268Z,45.83
2018-10-06T10:18:41.172Z,45.54
2018-10-06T10:19:41.157Z,45.37
2018-10-06T10:20:41.151Z,45.37
2018-10-06T10:21:41.187Z,45.47
2018-10-06T10:22:41.233Z,44.71
2018-10-06T10:23:41.161Z,43.86
2018-10-06T10:24:41.114Z,44.61
2018-10-06T10:25:41.111Z,44.44
2018-10-06T10:26:41.095Z,43.54
2018-10-06T10:27:41.091Z,44.10
2018-10-06T10:28:41.106Z,44.20
2018-10-06T10:29:41.077Z,44.59
2018-10-06T10:30:41.069Z,44.40
2018-10-06T10:31:41.061Z,44.10
2018-10-06T10:32:41.051Z,45.37
2018-10-06T10:33:41.245Z,44.23
2018-10-06T10:34:41.044Z,44.13
2018-10-06T10:35:41.038Z,43.74
2018-10-06T10:36:41.035Z,43.18
2018-10-06T10:37:41.015Z,42.79
2018-10-06T10:38:41.015Z,43.66
2018-10-06T10:39:41.035Z,42.91
2018-10-06T10:40:40.999Z,44.27
2018-10-06T10:41:40.991Z,43.20
2018-10-06T10:42:40.985Z,42.91
2018-10-06T10:43:40.975Z,42.03
2018-10-06T10:44:40.970Z,42.33
2018-10-06T10:45:40.968Z,42.15
2018-10-06T10:46:40.960Z,41.77
2018-10-06T10:47:40.950Z,41.28
2018-10-06T10:48:40.946Z,41.06
2018-10-06T10:49:40.939Z,41.55
2018-10-06T10:50:40.958Z,41.64
2018-10-06T10:51:40.931Z,42.35
2018-10-06T10:52:40.923Z,42.36
2018-10-06T10:53:40.916Z,41.20
2018-10-06T10:54:41.058Z,41.10
2018-10-06T10:55:40.941Z,41.78
2018-10-06T10:56:40.900Z,40.25
2018-10-06T10:57:40.951Z,39.67
2018-10-06T10:58:40.887Z,39.88
2018-10-06T10:59:41.030Z,39.49
2018-10-06T11:00:40.898Z,39.51
2018-10-06T11:01:40.871Z,39.62
2018-10-06T11:02:40.870Z,38.77
2018-10-06T11:03:40.873Z,38.18
2018-10-06T11:04:40.855Z,37.89
2018-10-06T11:05:40.854Z,37.62
2018-10-06T11:06:40.849Z,36.84
2018-10-06T11:07:40.841Z,37.04
2018-10-06T11:08:40.833Z,37.13
2018-10-06T11:09:40.827Z,37.15
2018-10-06T11:10:40.823Z,36.76
2018-10-06T11:11:40.817Z,36.19
2018-10-06T11:12:40.813Z,36.49
2018-10-06T11:13:40.805Z,36.00
2018-10-06T11:14:40.813Z,36.58
2018-10-06T11:15:40.808Z,36.29
2018-10-06T11:16:40.796Z,36.37
2018-10-06T11:17:40.794Z,36.27
2018-10-06T11:18:40.781Z,36.66
2018-10-06T11:19:40.782Z,36.76
2018-10-06T11:20:40.770Z,36.74
2018-10-06T11:21:40.765Z,37.02
2018-10-06T11:22:40.774Z,37.79
2018-10-06T11:23:40.759Z,37.21
2018-10-06T11:24:40.812Z,37.41
2018-10-06T11:25:40.749Z,37.50
2018-10-06T11:26:40.746Z,37.77
2018-10-06T11:27:40.746Z,37.97
2018-10-06T11:28:40.734Z,38.15
2018-10-06T11:29:40.726Z,38.73
2018-10-06T11:30:40.727Z,38.56
2018-10-06T11:31:40.722Z,38.64
2018-10-06T11:32:40.723Z,38.32
2018-10-06T11:33:40.711Z,39.28
2018-10-06T11:34:40.705Z,39.88
2018-10-06T11:35:40.699Z,40.75
2018-10-06T11:36:40.692Z,41.71
2018-10-06T11:37:40.789Z,40.27
2018-10-06T11:38:40.682Z,39.88
2018-10-06T11:39:40.683Z,39.61
2018-10-06T11:40:40.676Z,39.41
2018-10-06T11:41:40.673Z,39.34
2018-10-06T11:42:40.664Z,38.95
2018-10-06T11:43:40.662Z,38.75
2018-10-06T11:44:40.662Z,38.34
2018-10-06T11:45:40.648Z,39.51
2018-10-06T11:46:40.645Z,39.03
2018-10-06T11:47:40.644Z,38.73
2018-10-06T11:48:40.632Z,39.31
2018-10-06T11:49:40.679Z,38.54
2018-10-06T11:50:40.620Z,38.91
2018-10-06T11:51:40.637Z,39.29
2018-10-06T11:52:40.612Z,41.63
2018-10-06T11:53:40.660Z,40.06
2018-10-06T11:54:40.601Z,39.86
2018-10-06T11:55:40.595Z,40.52
2018-10-06T11:56:40.589Z,41.39
2018-10-06T11:57:40.584Z,41.20
2018-10-06T11:58:40.579Z,41.30
2018-10-06T11:59:40.659Z,41.86
2018-10-06T12:00:40.631Z,42.93
2018-10-06T12:01:40.563Z,41.86
2018-10-06T12:02:40.554Z,43.41
2018-10-06T12:03:40.550Z,42.54
2018-10-06T12:04:40.543Z,42.56
2018-10-06T12:05:40.621Z,42.08
2018-10-06T12:06:40.532Z,41.78
2018-10-06T12:07:40.525Z,41.59
2018-10-06T12:08:40.523Z,41.67
2018-10-06T12:09:40.516Z,41.57
2018-10-06T12:10:40.515Z,42.08
2018-10-06T12:11:40.503Z,41.47
2018-10-06T12:12:40.495Z,42.43
2018-10-06T12:13:40.539Z,42.61
2018-10-06T12:14:40.488Z,43.40
2018-10-06T12:15:40.479Z,43.30
2018-10-06T12:16:40.475Z,43.68
2018-10-06T12:17:40.469Z,43.68
2018-10-06T12:18:40.472Z,44.17
2018-10-06T12:19:40.454Z,44.27
2018-10-06T12:20:40.594Z,44.37
2018-10-06T12:21:40.442Z,44.97
2018-10-06T12:22:40.437Z,44.19
2018-10-06T12:23:40.427Z,42.93
2018-10-06T12:24:40.422Z,42.71
2018-10-06T12:25:40.418Z,43.68
2018-10-06T12:26:40.410Z,43.49
2018-10-06T12:27:40.403Z,43.57
2018-10-06T12:28:40.401Z,43.76
2018-10-06T12:29:40.391Z,44.24
2018-10-06T12:30:40.390Z,44.44
2018-10-06T12:31:40.373Z,44.83
2018-10-06T12:32:40.368Z,44.54
2018-10-06T12:33:40.357Z,44.44
2018-10-06T12:34:40.479Z,44.61
2018-10-06T12:35:40.482Z,44.61
2018-10-06T12:36:40.336Z,44.81
2018-10-06T12:37:40.332Z,44.71
2018-10-06T12:38:40.330Z,45.37
2018-10-06T12:39:40.314Z,46.94
2018-10-06T12:40:40.311Z,45.58
2018-10-06T12:41:40.301Z,45.87
2018-10-06T12:42:40.290Z,45.58
2018-10-06T12:43:40.289Z,45.10
2018-10-06T12:44:40.276Z,44.81
2018-10-06T12:45:40.275Z,45.47
2018-10-06T12:46:40.262Z,45.37
2018-10-06T12:47:40.253Z,45.27
2018-10-06T12:48:40.244Z,45.27
2018-10-06T12:49:40.234Z,45.65
2018-10-06T12:50:40.230Z,46.24
2018-10-06T12:51:40.223Z,48.37
2018-10-06T12:52:40.216Z,45.95